sensor_id;sensor_type;location;lat;lon;timestamp;temperature;humidity
13458;DHT22;6801;53.018;11.560;2022-08-19T14:43:38;24.50;66.00
13458;DHT22;6801;53.018;11.560;2022-08-19T14:46:11;24.50;66.00
13458;DHT22;6801;53.018;11.560;2022-08-19T14:48:39;24.50;66.10
13458;DHT22;6801;53.018;11.560;2022-08-19T14:51:06;24.50;66.10
13458;DHT22;6801;53.018;11.560;2022-08-19T14:53:33;24.50;66.30
13458;DHT22;6801;53.018;11.560;2022-08-19T14:56:01;24.50;66.30
13458;DHT22;6801;53.018;11.560;2022-08-19T14:58:33;24.40;66.70
13458;DHT22;6801;53.018;11.560;2022-08-19T15:01:02;24.40;66.80
13458;DHT22;6801;53.018;11.560;2022-08-19T15:03:30;24.40;66.90
13458;DHT22;6801;53.018;11.560;2022-08-19T15:05:59;24.30;67.10
13458;DHT22;6801;53.018;11.560;2022-08-19T15:08:28;24.30;67.10
13458;DHT22;6801;53.018;11.560;2022-08-19T15:10:57;24.30;67.00
13458;DHT22;6801;53.018;11.560;2022-08-19T15:13:26;24.40;66.70
13458;DHT22;6801;53.018;11.560;2022-08-19T15:15:53;24.40;66.70
13458;DHT22;6801;53.018;11.560;2022-08-19T15:18:22;24.50;66.60
13458;DHT22;6801;53.018;11.560;2022-08-19T15:20:49;24.40;66.80
13458;DHT22;6801;53.018;11.560;2022-08-19T15:23:18;24.50;66.80
13458;DHT22;6801;53.018;11.560;2022-08-19T15:25:46;24.50;66.40
13458;DHT22;6801;53.018;11.560;2022-08-19T15:28:14;24.50;66.30
13458;DHT22;6801;53.018;11.560;2022-08-19T15:30:42;24.50;66.10
13458;DHT22;6801;53.018;11.560;2022-08-19T15:33:10;24.50;66.10
13458;DHT22;6801;53.018;11.560;2022-08-19T15:35:41;24.60;65.90
13458;DHT22;6801;53.018;11.560;2022-08-19T15:38:09;24.60;65.80
13458;DHT22;6801;53.018;11.560;2022-08-19T15:40:38;24.60;65.80
13458;DHT22;6801;53.018;11.560;2022-08-19T15:43:06;24.60;65.80
13458;DHT22;6801;53.018;11.560;2022-08-19T15:45:33;24.70;65.70
13458;DHT22;6801;53.018;11.560;2022-08-19T15:48:02;24.70;65.60
13458;DHT22;6801;53.018;11.560;2022-08-19T15:50:30;24.70;65.50
13458;DHT22;6801;53.018;11.560;2022-08-19T15:53:01;24.70;65.60
13458;DHT22;6801;53.018;11.560;2022-08-19T15:55:31;24.80;65.70
13458;DHT22;6801;53.018;11.560;2022-08-19T15:57:58;24.80;65.70
13458;DHT22;6801;53.018;11.560;2022-08-19T16:00:43;24.80;65.60
13458;DHT22;6801;53.018;11.560;2022-08-19T16:03:27;24.80;65.50
13458;DHT22;6801;53.018;11.560;2022-08-19T16:06:12;24.80;65.40
13458;DHT22;6801;53.018;11.560;2022-08-19T16:08:53;24.80;65.40
13458;DHT22;6801;53.018;11.560;2022-08-19T16:11:22;24.80;65.40
13458;DHT22;6801;53.018;11.560;2022-08-19T16:13:52;24.80;65.50
13458;DHT22;6801;53.018;11.560;2022-08-19T16:16:21;24.80;65.60
13458;DHT22;6801;53.018;11.560;2022-08-19T16:18:49;24.70;65.50
13458;DHT22;6801;53.018;11.560;2022-08-19T16:21:19;24.70;65.80
13458;DHT22;6801;53.018;11.560;2022-08-19T16:23:48;24.70;65.60
13458;DHT22;6801;53.018;11.560;2022-08-19T16:26:18;24.70;65.60
13458;DHT22;6801;53.018;11.560;2022-08-19T16:28:46;24.70;65.60
13458;DHT22;6801;53.018;11.560;2022-08-19T16:31:14;24.70;65.50
13458;DHT22;6801;53.018;11.560;2022-08-19T16:33:42;24.70;65.70
13458;DHT22;6801;53.018;11.560;2022-08-19T16:36:09;24.60;65.90
13458;DHT22;6801;53.018;11.560;2022-08-19T16:38:36;24.60;66.10
13458;DHT22;6801;53.018;11.560;2022-08-19T16:41:03;24.60;65.90
13458;DHT22;6801;53.018;11.560;2022-08-19T16:43:33;24.60;66.00
13458;DHT22;6801;53.018;11.560;2022-08-19T16:46:01;24.60;66.00
13458;DHT22;6801;53.018;11.560;2022-08-19T16:48:29;24.50;65.90
13458;DHT22;6801;53.018;11.560;2022-08-19T16:50:58;24.50;66.10
13458;DHT22;6801;53.018;11.560;2022-08-19T16:53:27;24.50;66.10
13458;DHT22;6801;53.018;11.560;2022-08-19T16:55:55;24.50;66.00
13458;DHT22;6801;53.018;11.560;2022-08-19T16:58:22;24.50;66.30
13458;DHT22;6801;53.018;11.560;2022-08-19T17:00:53;24.50;66.20
13458;DHT22;6801;53.018;11.560;2022-08-19T17:03:21;24.50;66.30
13458;DHT22;6801;53.018;11.560;2022-08-19T17:05:54;24.50;66.20
13458;DHT22;6801;53.018;11.560;2022-08-19T17:08:23;24.40;66.30
13458;DHT22;6801;53.018;11.560;2022-08-19T17:10:52;24.40;66.30
13458;DHT22;6801;53.018;11.560;2022-08-19T17:13:20;24.40;66.40
13458;DHT22;6801;53.018;11.560;2022-08-19T17:15:53;24.40;66.30
13458;DHT22;6801;53.018;11.560;2022-08-19T17:18:22;24.40;66.40
13458;DHT22;6801;53.018;11.560;2022-08-19T17:20:51;24.40;66.50
13458;DHT22;6801;53.018;11.560;2022-08-19T17:23:19;24.30;66.50
13458;DHT22;6801;53.018;11.560;2022-08-19T17:25:48;24.30;66.60
13458;DHT22;6801;53.018;11.560;2022-08-19T17:28:19;24.30;66.50
13458;DHT22;6801;53.018;11.560;2022-08-19T17:30:47;24.30;66.60
13458;DHT22;6801;53.018;11.560;2022-08-19T17:33:16;24.30;66.50
13458;DHT22;6801;53.018;11.560;2022-08-19T17:35:44;24.30;66.60
13458;DHT22;6801;53.018;11.560;2022-08-19T17:38:15;24.30;66.50
13458;DHT22;6801;53.018;11.560;2022-08-19T17:40:42;24.30;66.60
13458;DHT22;6801;53.018;11.560;2022-08-19T17:43:11;24.30;66.30
13458;DHT22;6801;53.018;11.560;2022-08-19T17:45:40;24.30;66.40
13458;DHT22;6801;53.018;11.560;2022-08-19T17:48:08;24.20;66.50
13458;DHT22;6801;53.018;11.560;2022-08-19T17:50:36;24.20;66.70
13458;DHT22;6801;53.018;11.560;2022-08-19T17:53:04;24.20;66.60
13458;DHT22;6801;53.018;11.560;2022-08-19T17:55:32;24.20;66.50
13458;DHT22;6801;53.018;11.560;2022-08-19T17:58:01;24.20;66.60
13458;DHT22;6801;53.018;11.560;2022-08-19T18:00:31;24.20;66.80
13458;DHT22;6801;53.018;11.560;2022-08-19T18:03:00;24.20;66.80
13458;DHT22;6801;53.018;11.560;2022-08-19T18:05:30;24.20;66.90
13458;DHT22;6801;53.018;11.560;2022-08-19T18:07:58;24.20;67.20
13458;DHT22;6801;53.018;11.560;2022-08-19T18:10:28;24.20;66.80
13458;DHT22;6801;53.018;11.560;2022-08-19T18:12:57;24.20;66.80
13458;DHT22;6801;53.018;11.560;2022-08-19T18:15:25;24.10;66.80
13458;DHT22;6801;53.018;11.560;2022-08-19T18:17:52;24.10;66.70
13458;DHT22;6801;53.018;11.560;2022-08-19T18:20:20;24.10;66.60
13458;DHT22;6801;53.018;11.560;2022-08-19T18:22:48;24.00;66.80
13458;DHT22;6801;53.018;11.560;2022-08-19T18:25:19;24.00;67.00
13458;DHT22;6801;53.018;11.560;2022-08-19T18:27:49;24.00;67.10
13458;DHT22;6801;53.018;11.560;2022-08-19T18:30:16;24.00;67.00
13458;DHT22;6801;53.018;11.560;2022-08-19T18:32:45;24.00;67.00
13458;DHT22;6801;53.018;11.560;2022-08-19T18:35:16;24.00;67.10
13458;DHT22;6801;53.018;11.560;2022-08-19T18:37:44;24.00;67.00
13458;DHT22;6801;53.018;11.560;2022-08-19T18:40:14;24.00;66.90
13458;DHT22;6801;53.018;11.560;2022-08-19T18:43:00;24.00;66.80
13458;DHT22;6801;53.018;11.560;2022-08-19T18:45:44;23.90;66.80
13458;DHT22;6801;53.018;11.560;2022-08-19T18:48:29;23.90;66.90
13458;DHT22;6801;53.018;11.560;2022-08-19T18:51:15;23.90;66.80
13458;DHT22;6801;53.018;11.560;2022-08-19T18:53:44;23.80;66.90
13458;DHT22;6801;53.018;11.560;2022-08-19T18:56:14;23.80;67.00
13458;DHT22;6801;53.018;11.560;2022-08-19T18:58:43;23.90;67.10
13458;DHT22;6801;53.018;11.560;2022-08-19T19:01:13;23.80;67.00
13458;DHT22;6801;53.018;11.560;2022-08-19T19:03:43;23.80;67.00
13458;DHT22;6801;53.018;11.560;2022-08-19T19:06:11;23.80;67.00
13458;DHT22;6801;53.018;11.560;2022-08-19T19:08:38;23.70;67.00
13458;DHT22;6801;53.018;11.560;2022-08-19T19:11:06;23.70;67.10
13458;DHT22;6801;53.018;11.560;2022-08-19T19:13:34;23.70;67.10
13458;DHT22;6801;53.018;11.560;2022-08-19T19:16:03;23.70;67.10
13458;DHT22;6801;53.018;11.560;2022-08-19T19:18:31;23.70;67.20
13458;DHT22;6801;53.018;11.560;2022-08-19T19:20:58;23.60;67.10
13458;DHT22;6801;53.018;11.560;2022-08-19T19:23:25;23.60;67.20
13458;DHT22;6801;53.018;11.560;2022-08-19T19:25:53;23.60;67.20
13458;DHT22;6801;53.018;11.560;2022-08-19T19:28:20;23.50;67.30
13458;DHT22;6801;53.018;11.560;2022-08-19T19:30:50;23.50;67.30
13458;DHT22;6801;53.018;11.560;2022-08-19T19:33:19;23.50;67.30
13458;DHT22;6801;53.018;11.560;2022-08-19T19:35:46;23.50;67.30
13458;DHT22;6801;53.018;11.560;2022-08-19T19:38:13;23.50;67.20
13458;DHT22;6801;53.018;11.560;2022-08-19T19:40:40;23.50;67.10
13458;DHT22;6801;53.018;11.560;2022-08-19T19:43:07;23.50;67.20
13458;DHT22;6801;53.018;11.560;2022-08-19T19:45:34;23.50;67.20
13458;DHT22;6801;53.018;11.560;2022-08-19T19:48:02;23.40;67.20
13458;DHT22;6801;53.018;11.560;2022-08-19T19:50:31;23.40;67.30
13458;DHT22;6801;53.018;11.560;2022-08-19T19:52:58;23.40;67.20
13458;DHT22;6801;53.018;11.560;2022-08-19T19:55:25;23.40;67.20
13458;DHT22;6801;53.018;11.560;2022-08-19T19:57:53;23.40;67.10
13458;DHT22;6801;53.018;11.560;2022-08-19T20:00:22;23.30;67.10
13458;DHT22;6801;53.018;11.560;2022-08-19T20:02:50;23.30;67.10
13458;DHT22;6801;53.018;11.560;2022-08-19T20:05:18;23.30;67.20
13458;DHT22;6801;53.018;11.560;2022-08-19T20:07:48;23.30;67.30
13458;DHT22;6801;53.018;11.560;2022-08-19T20:10:33;23.30;67.30
13458;DHT22;6801;53.018;11.560;2022-08-19T20:13:00;23.20;67.30
13458;DHT22;6801;53.018;11.560;2022-08-19T20:15:28;23.20;67.30
13458;DHT22;6801;53.018;11.560;2022-08-19T20:17:56;23.30;67.50
13458;DHT22;6801;53.018;11.560;2022-08-19T20:20:23;23.30;67.50
13458;DHT22;6801;53.018;11.560;2022-08-19T20:22:52;23.20;67.50
13458;DHT22;6801;53.018;11.560;2022-08-19T20:25:21;23.20;67.50
13458;DHT22;6801;53.018;11.560;2022-08-19T20:27:48;23.20;67.50
13458;DHT22;6801;53.018;11.560;2022-08-19T20:30:17;23.20;67.30
13458;DHT22;6801;53.018;11.560;2022-08-19T20:32:45;23.20;67.30
13458;DHT22;6801;53.018;11.560;2022-08-19T20:35:12;23.20;67.40
13458;DHT22;6801;53.018;11.560;2022-08-19T20:37:39;23.20;67.60
13458;DHT22;6801;53.018;11.560;2022-08-19T20:40:10;23.10;67.80
13458;DHT22;6801;53.018;11.560;2022-08-19T20:42:39;23.10;67.70
13458;DHT22;6801;53.018;11.560;2022-08-19T20:45:07;23.10;67.80
13458;DHT22;6801;53.018;11.560;2022-08-19T20:47:35;23.00;67.80
13458;DHT22;6801;53.018;11.560;2022-08-19T20:50:05;23.10;67.80
13458;DHT22;6801;53.018;11.560;2022-08-19T20:52:33;23.00;67.80
13458;DHT22;6801;53.018;11.560;2022-08-19T20:55:02;23.00;68.00
13458;DHT22;6801;53.018;11.560;2022-08-19T20:57:31;23.00;67.80
13458;DHT22;6801;53.018;11.560;2022-08-19T20:59:57;23.00;68.00
13458;DHT22;6801;53.018;11.560;2022-08-19T21:02:25;23.00;68.10
13458;DHT22;6801;53.018;11.560;2022-08-19T21:04:51;23.00;68.10
13458;DHT22;6801;53.018;11.560;2022-08-19T21:07:18;23.00;68.10
13458;DHT22;6801;53.018;11.560;2022-08-19T21:09:45;23.00;68.20
13458;DHT22;6801;53.018;11.560;2022-08-19T21:12:12;22.90;68.30
13458;DHT22;6801;53.018;11.560;2022-08-19T21:14:43;22.90;68.40
13458;DHT22;6801;53.018;11.560;2022-08-19T21:17:10;22.90;68.70
13458;DHT22;6801;53.018;11.560;2022-08-19T21:19:37;22.90;69.10
13458;DHT22;6801;53.018;11.560;2022-08-19T21:22:04;22.90;69.50
13458;DHT22;6801;53.018;11.560;2022-08-19T21:24:31;22.90;69.80
13458;DHT22;6801;53.018;11.560;2022-08-19T21:26:58;22.90;69.20
13458;DHT22;6801;53.018;11.560;2022-08-19T21:29:25;22.80;69.00
13458;DHT22;6801;53.018;11.560;2022-08-19T21:31:54;22.80;69.50
13458;DHT22;6801;53.018;11.560;2022-08-19T21:34:20;22.80;70.00
13458;DHT22;6801;53.018;11.560;2022-08-19T21:36:47;22.70;69.40
13458;DHT22;6801;53.018;11.560;2022-08-19T21:39:14;22.70;69.10
13458;DHT22;6801;53.018;11.560;2022-08-19T21:41:41;22.70;68.90
13458;DHT22;6801;53.018;11.560;2022-08-19T21:44:08;22.70;68.90
13458;DHT22;6801;53.018;11.560;2022-08-19T21:46:35;22.70;69.10
13458;DHT22;6801;53.018;11.560;2022-08-19T21:49:03;22.60;69.00
13458;DHT22;6801;53.018;11.560;2022-08-19T21:51:30;22.60;69.60
13458;DHT22;6801;53.018;11.560;2022-08-19T21:53:58;22.60;69.30
13458;DHT22;6801;53.018;11.560;2022-08-19T21:56:24;22.60;69.00
13458;DHT22;6801;53.018;11.560;2022-08-19T21:58:51;22.60;69.00
13458;DHT22;6801;53.018;11.560;2022-08-19T22:01:21;22.60;69.20
13458;DHT22;6801;53.018;11.560;2022-08-19T22:03:48;22.60;69.40
13458;DHT22;6801;53.018;11.560;2022-08-19T22:06:16;22.60;69.90
13458;DHT22;6801;53.018;11.560;2022-08-19T22:08:44;22.50;70.30
13458;DHT22;6801;53.018;11.560;2022-08-19T22:11:12;22.50;69.60
13458;DHT22;6801;53.018;11.560;2022-08-19T22:13:39;22.50;69.30
13458;DHT22;6801;53.018;11.560;2022-08-19T22:16:06;22.50;69.10
13458;DHT22;6801;53.018;11.560;2022-08-19T22:18:34;22.50;68.90
13458;DHT22;6801;53.018;11.560;2022-08-19T22:21:01;22.50;68.90
13458;DHT22;6801;53.018;11.560;2022-08-19T22:23:32;22.50;68.80
13458;DHT22;6801;53.018;11.560;2022-08-19T22:25:59;22.50;68.80
13458;DHT22;6801;53.018;11.560;2022-08-19T22:28:26;22.50;68.70
13458;DHT22;6801;53.018;11.560;2022-08-19T22:30:53;22.40;68.70
13458;DHT22;6801;53.018;11.560;2022-08-19T22:33:20;22.40;68.60
13458;DHT22;6801;53.018;11.560;2022-08-19T22:35:48;22.40;68.60
13458;DHT22;6801;53.018;11.560;2022-08-19T22:38:16;22.30;68.50
13458;DHT22;6801;53.018;11.560;2022-08-19T22:40:47;22.40;68.50
13458;DHT22;6801;53.018;11.560;2022-08-19T22:43:18;22.30;68.60
13458;DHT22;6801;53.018;11.560;2022-08-19T22:45:46;22.30;68.40
13458;DHT22;6801;53.018;11.560;2022-08-19T22:48:16;22.30;68.40
13458;DHT22;6801;53.018;11.560;2022-08-19T22:50:45;22.30;68.50
13458;DHT22;6801;53.018;11.560;2022-08-19T22:53:35;22.30;68.50
13458;DHT22;6801;53.018;11.560;2022-08-19T22:56:03;22.20;68.50
13458;DHT22;6801;53.018;11.560;2022-08-19T22:58:31;22.20;68.60
13458;DHT22;6801;53.018;11.560;2022-08-19T23:00:58;22.20;68.60
13458;DHT22;6801;53.018;11.560;2022-08-19T23:03:25;22.20;68.60
13458;DHT22;6801;53.018;11.560;2022-08-19T23:05:52;22.20;68.80
13458;DHT22;6801;53.018;11.560;2022-08-19T23:08:21;22.10;68.90
13458;DHT22;6801;53.018;11.560;2022-08-19T23:10:48;22.10;68.90
13458;DHT22;6801;53.018;11.560;2022-08-19T23:13:16;22.10;68.90
13458;DHT22;6801;53.018;11.560;2022-08-19T23:15:45;22.00;69.00
13458;DHT22;6801;53.018;11.560;2022-08-19T23:18:13;22.10;69.00
13458;DHT22;6801;53.018;11.560;2022-08-19T23:20:42;22.00;69.00
13458;DHT22;6801;53.018;11.560;2022-08-19T23:23:11;22.00;69.00
13458;DHT22;6801;53.018;11.560;2022-08-19T23:25:39;22.00;69.00
13458;DHT22;6801;53.018;11.560;2022-08-19T23:28:06;22.00;69.10
13458;DHT22;6801;53.018;11.560;2022-08-19T23:30:52;22.00;69.00
13458;DHT22;6801;53.018;11.560;2022-08-19T23:33:22;22.00;69.10
13458;DHT22;6801;53.018;11.560;2022-08-19T23:35:53;22.00;69.20
13458;DHT22;6801;53.018;11.560;2022-08-19T23:38:21;21.90;69.30
13458;DHT22;6801;53.018;11.560;2022-08-19T23:40:48;21.90;69.20
13458;DHT22;6801;53.018;11.560;2022-08-19T23:43:16;21.90;69.20
13458;DHT22;6801;53.018;11.560;2022-08-19T23:45:43;21.90;69.30
13458;DHT22;6801;53.018;11.560;2022-08-19T23:48:12;21.90;69.30
13458;DHT22;6801;53.018;11.560;2022-08-19T23:50:41;21.90;69.40
13458;DHT22;6801;53.018;11.560;2022-08-19T23:53:09;21.90;69.50
13458;DHT22;6801;53.018;11.560;2022-08-19T23:55:40;21.90;69.70
13458;DHT22;6801;53.018;11.560;2022-08-19T23:58:08;21.80;69.60
